createdAt,value
2022-07-29T00:01:21.452Z,62.99
2022-07-29T00:06:42.345Z,62.88
2022-07-29T00:12:02.797Z,63.18
2022-07-29T00:17:24.819Z,63.48
2022-07-29T00:22:45.194Z,63.58
2022-07-29T00:28:05.644Z,63.61
2022-07-29T00:33:26.228Z,63.74
2022-07-29T00:38:47.376Z,63.90
2022-07-29T00:44:08.598Z,63.90
2022-07-29T00:49:29.396Z,64.12
2022-07-29T00:54:50.049Z,64.14
2022-07-29T01:00:14.566Z,64.27
2022-07-29T01:05:50.260Z,64.33
2022-07-29T01:11:13.187Z,64.32
2022-07-29T01:16:40.961Z,64.41
2022-07-29T01:22:23.216Z,64.87
2022-07-29T01:28:22.113Z,64.74
2022-07-29T01:33:52.292Z,64.60
2022-07-29T01:39:24.724Z,64.88
2022-07-29T01:45:00.288Z,64.91
2022-07-29T01:50:24.355Z,64.75
2022-07-29T01:55:47.616Z,64.80
2022-07-29T02:01:11.142Z,64.80
2022-07-29T02:06:34.457Z,64.76
2022-07-29T02:11:57.032Z,64.79
2022-07-29T02:17:25.340Z,64.73
2022-07-29T02:22:48.175Z,64.75
2022-07-29T02:28:08.937Z,64.66
2022-07-29T02:33:31.655Z,64.85
2022-07-29T02:38:54.382Z,65.08
2022-07-29T02:44:18.442Z,65.02
2022-07-29T02:49:49.184Z,65.14
2022-07-29T02:55:23.862Z,65.60
2022-07-29T03:00:47.315Z,65.36
2022-07-29T03:06:09.497Z,65.44
2022-07-29T03:11:51.130Z,65.56
2022-07-29T03:17:12.349Z,65.69
2022-07-29T03:22:33.489Z,65.81
2022-07-29T03:27:54.304Z,65.84
2022-07-29T03:33:14.935Z,65.88
2022-07-29T03:38:37.504Z,65.84
2022-07-29T03:43:59.743Z,66.08
2022-07-29T03:49:21.894Z,66.19
2022-07-29T03:54:43.046Z,66.20
2022-07-29T04:00:06.084Z,66.26
2022-07-29T04:05:26.644Z,66.17
2022-07-29T04:10:48.517Z,66.53
2022-07-29T04:16:09.305Z,66.25
2022-07-29T04:21:30.058Z,66.49
2022-07-29T04:26:50.652Z,66.78
2022-07-29T04:32:10.972Z,66.96
2022-07-29T04:37:31.392Z,67.09
2022-07-29T04:42:52.164Z,66.85
2022-07-29T04:48:14.678Z,66.92
2022-07-29T04:53:35.477Z,66.99
2022-07-29T04:58:56.198Z,67.36
2022-07-29T05:04:16.993Z,67.24
2022-07-29T05:09:37.956Z,67.18
2022-07-29T05:14:58.638Z,67.54
2022-07-29T05:20:19.730Z,67.74
2022-07-29T05:25:40.726Z,67.86
2022-07-29T05:31:05.052Z,67.92
2022-07-29T05:36:25.753Z,68.28
2022-07-29T05:41:50.118Z,68.17
2022-07-29T05:47:12.710Z,68.05
2022-07-29T05:52:33.184Z,67.97
2022-07-29T05:57:53.928Z,67.81
2022-07-29T06:03:14.393Z,68.12
2022-07-29T06:08:34.979Z,68.33
2022-07-29T06:13:55.826Z,67.95
2022-07-29T06:19:16.744Z,67.93
2022-07-29T06:24:38.875Z,67.83
2022-07-29T06:30:02.763Z,67.76
2022-07-29T06:35:42.050Z,67.12
2022-07-29T06:41:03.704Z,67.21
2022-07-29T06:46:24.484Z,67.18
2022-07-29T06:51:44.880Z,66.69
2022-07-29T06:57:06.718Z,66.42
2022-07-29T07:02:27.594Z,65.84
2022-07-29T07:07:48.544Z,65.06
2022-07-29T07:13:09.756Z,64.34
2022-07-29T07:18:30.372Z,63.90
2022-07-29T07:23:50.979Z,63.33
2022-07-29T07:29:12.407Z,62.81
2022-07-29T07:34:33.216Z,62.11
2022-07-29T07:39:54.328Z,61.61
2022-07-29T07:45:16.128Z,60.91
2022-07-29T07:50:37.663Z,60.05
2022-07-29T07:56:13.692Z,59.31
2022-07-29T08:01:48.123Z,59.14
2022-07-29T08:07:15.841Z,58.38
2022-07-29T08:12:36.587Z,57.94
2022-07-29T08:17:57.314Z,56.90
2022-07-29T08:23:19.942Z,55.71
2022-07-29T08:28:45.632Z,54.81
2022-07-29T08:34:06.985Z,54.10
2022-07-29T08:39:27.754Z,52.80
2022-07-29T08:44:49.155Z,52.67
2022-07-29T08:50:10.959Z,52.35
2022-07-29T08:55:31.551Z,51.97
2022-07-29T09:00:55.326Z,51.54
2022-07-29T09:12:04.944Z,49.77
2022-07-29T09:17:49.584Z,48.17
2022-07-29T09:23:10.422Z,46.26
2022-07-29T09:28:30.896Z,44.55
2022-07-29T09:33:53.391Z,44.41
2022-07-29T09:39:15.561Z,43.80
2022-07-29T09:44:49.388Z,41.74
2022-07-29T09:50:10.219Z,40.64
2022-07-29T09:55:30.874Z,39.72
2022-07-29T10:00:55.903Z,38.44
2022-07-29T10:06:16.743Z,38.17
2022-07-29T10:11:48.924Z,38.85
2022-07-29T10:17:11.751Z,39.86
2022-07-29T10:22:52.400Z,38.00
2022-07-29T10:28:16.475Z,34.95
2022-07-29T10:34:30.426Z,32.36
2022-07-29T10:40:37.606Z,31.89
2022-07-29T10:46:02.189Z,31.68
2022-07-29T10:51:23.907Z,31.34
2022-07-29T10:56:46.152Z,30.45
2022-07-29T11:02:41.293Z,30.57
2022-07-29T11:08:26.122Z,31.05
2022-07-29T11:13:57.431Z,33.28
2022-07-29T11:19:29.860Z,33.72
2022-07-29T11:25:16.690Z,33.21
2022-07-29T11:30:54.302Z,33.84
2022-07-29T11:36:16.827Z,34.97
2022-07-29T11:41:40.042Z,34.76
2022-07-29T11:47:01.358Z,35.61
2022-07-29T11:52:22.623Z,36.19
2022-07-29T11:57:48.608Z,35.70
2022-07-29T12:03:32.926Z,35.27
2022-07-29T12:08:53.856Z,34.43
2022-07-29T12:14:30.796Z,34.06
2022-07-29T12:19:51.319Z,36.00
2022-07-29T12:25:32.452Z,35.60
2022-07-29T12:30:53.865Z,34.82
2022-07-29T12:36:17.928Z,33.15
2022-07-29T12:41:39.956Z,32.35
2022-07-29T12:47:04.830Z,32.40
2022-07-29T12:52:34.061Z,35.07
2022-07-29T12:57:54.438Z,37.34
2022-07-29T13:03:15.431Z,39.21
2022-07-29T13:08:36.298Z,38.69
2022-07-29T13:14:03.113Z,39.53
2022-07-29T13:19:36.299Z,39.94
2022-07-29T13:24:59.677Z,39.51
2022-07-29T13:30:20.289Z,39.64
2022-07-29T13:35:41.354Z,39.09
2022-07-29T13:41:01.682Z,39.75
2022-07-29T13:46:22.635Z,40.07
2022-07-29T13:51:43.054Z,40.31
2022-07-29T13:57:04.501Z,39.58
2022-07-29T14:02:25.332Z,40.46
2022-07-29T14:07:46.795Z,38.98
2022-07-29T14:13:07.192Z,38.24
2022-07-29T14:18:46.083Z,38.23
2022-07-29T14:24:17.635Z,38.59
2022-07-29T14:29:41.859Z,39.52
2022-07-29T14:35:02.579Z,39.99
2022-07-29T14:40:24.004Z,41.42
2022-07-29T14:45:45.714Z,42.46
2022-07-29T14:51:06.324Z,43.61
2022-07-29T14:56:36.923Z,43.41
2022-07-29T15:01:58.703Z,43.48
2022-07-29T15:07:19.252Z,43.17
2022-07-29T15:12:39.695Z,42.98
2022-07-29T15:18:04.011Z,43.01
2022-07-29T15:23:24.350Z,43.04
2022-07-29T15:28:44.944Z,43.36
2022-07-29T15:34:06.568Z,43.75
2022-07-29T15:39:27.078Z,44.08
2022-07-29T15:44:47.517Z,44.18
2022-07-29T15:50:14.275Z,44.04
2022-07-29T15:55:35.033Z,43.68
2022-07-29T16:00:55.313Z,43.26
2022-07-29T16:06:15.674Z,42.90
2022-07-29T16:11:37.008Z,42.66
2022-07-29T16:16:58.011Z,41.28
2022-07-29T16:22:19.333Z,39.59
2022-07-29T16:27:40.153Z,37.64
2022-07-29T16:33:03.234Z,35.61
2022-07-29T16:38:26.895Z,31.86
2022-07-29T16:43:47.721Z,28.84
2022-07-29T16:49:08.778Z,27.50
2022-07-29T16:54:29.625Z,29.88
2022-07-29T16:59:51.167Z,35.44
2022-07-29T17:05:12.585Z,38.82
2022-07-29T17:10:33.123Z,41.07
2022-07-29T17:15:57.579Z,42.43
2022-07-29T17:21:22.933Z,43.32
2022-07-29T17:26:44.481Z,44.10
2022-07-29T17:32:07.486Z,44.27
2022-07-29T17:37:28.841Z,43.86
2022-07-29T17:42:49.385Z,44.23
2022-07-29T17:48:11.030Z,45.10
2022-07-29T17:53:32.055Z,46.06
2022-07-29T17:58:52.960Z,46.69
2022-07-29T18:04:15.508Z,47.24
2022-07-29T18:09:36.253Z,47.73
2022-07-29T18:14:56.867Z,48.57
2022-07-29T18:20:17.839Z,49.45
2022-07-29T18:25:39.186Z,49.89
2022-07-29T18:31:00.703Z,50.40
2022-07-29T18:36:21.286Z,51.29
2022-07-29T18:41:50.341Z,52.17
2022-07-29T18:47:11.387Z,52.63
2022-07-29T18:52:32.731Z,53.41
2022-07-29T18:58:18.747Z,54.02
2022-07-29T19:03:39.607Z,54.81
2022-07-29T19:09:00.486Z,55.11
2022-07-29T19:14:21.082Z,55.85
2022-07-29T19:19:44.434Z,56.13
2022-07-29T19:25:05.171Z,56.71
2022-07-29T19:30:25.842Z,56.94
2022-07-29T19:35:49.337Z,57.20
2022-07-29T19:41:13.129Z,57.88
2022-07-29T19:46:33.619Z,58.20
2022-07-29T19:51:54.046Z,58.42
2022-07-29T19:57:14.582Z,58.66
2022-07-29T20:02:34.956Z,58.89
2022-07-29T20:07:55.847Z,58.76
2022-07-29T20:13:16.322Z,58.85
2022-07-29T20:18:36.957Z,59.10
2022-07-29T20:24:00.425Z,59.34
2022-07-29T20:29:21.539Z,59.40
2022-07-29T20:34:42.876Z,59.48
2022-07-29T20:40:04.917Z,59.69
2022-07-29T20:45:26.034Z,59.67
2022-07-29T20:50:47.545Z,59.70
2022-07-29T20:56:08.509Z,59.78
2022-07-29T21:01:29.298Z,59.92
2022-07-29T21:06:50.243Z,60.06
2022-07-29T21:12:11.075Z,60.32
2022-07-29T21:17:35.844Z,60.44
2022-07-29T21:22:56.668Z,60.76
2022-07-29T21:28:30.823Z,60.77
2022-07-29T21:33:51.592Z,61.08
2022-07-29T21:39:12.045Z,61.06
2022-07-29T21:44:32.716Z,61.17
2022-07-29T21:49:56.072Z,61.16
2022-07-29T21:55:16.427Z,61.32
2022-07-29T22:00:41.473Z,61.59
2022-07-29T22:06:01.917Z,61.96
2022-07-29T22:11:22.595Z,61.83
2022-07-29T22:16:43.486Z,62.17
2022-07-29T22:22:04.619Z,62.41
2022-07-29T22:27:25.378Z,62.46
2022-07-29T22:32:46.333Z,62.61
2022-07-29T22:38:06.845Z,62.63
2022-07-29T22:43:27.479Z,62.75
2022-07-29T22:48:48.402Z,62.86
2022-07-29T22:54:08.908Z,63.10
2022-07-29T22:59:29.518Z,63.23
2022-07-29T23:04:50.251Z,63.18
2022-07-29T23:10:11.024Z,63.15
2022-07-29T23:15:31.562Z,63.05
2022-07-29T23:20:52.263Z,63.06
2022-07-29T23:26:16.694Z,62.92
2022-07-29T23:31:41.740Z,62.79
2022-07-29T23:37:03.600Z,62.77
2022-07-29T23:42:24.479Z,62.85
2022-07-29T23:47:45.272Z,62.70
2022-07-29T23:53:05.960Z,63.29
2022-07-29T23:58:26.445Z,63.50
